DAL291 LFPG-KLAX
Flight info
| Callsign | DAL291 |
|---|---|
| Flight time | N/A |
| Altitude | 36000 |
| Route | ATREX DCT VESAN DCT RATUK DCT SOVAT DCT LESTA UP6 RODOL UM65 TENSO L603 BELOX DCT GOMUP/M085F360 DCT 59N020W 60N030W 60N040W 60N050W DCT PIDSO/N0498F360 DCT TUNNI DCT 59N080W 56N090W 55N093W 52N100W DCT RUDVI DCT BIL DCT JAC DCT OGD DCT MLF DCT WINEN Q73 HAKMN ANJLL4 |
| Aircraft | A359/H-SDE2E3GHIJ3J4J5LM1ORWXY/LB1D1 |
Departure
| Time | N/A |
|---|---|
| Airport | Charles de Gaulle International Airport (LFPG) |
Arrival
| Time | 2026-04-22 15:56 |
|---|---|
| Airport | Los Angeles International Airport (KLAX) |
| Time | Latitude | Longitude | Altitude | Speed | Heading |
|---|---|---|---|---|---|
| 2026-04-22 15:03 | 37.22453 | -113.66996 | 36022 ft | 466 kts | 201° |
| 2026-04-22 15:03 | 37.19247 | -113.67745 | 36037 ft | 466 kts | 201° |
| 2026-04-22 15:03 | 37.12915 | -113.69247 | 36038 ft | 466 kts | 201° |
| 2026-04-22 15:04 | 37.06549 | -113.70793 | 36050 ft | 462 kts | 203° |
| 2026-04-22 15:04 | 37.00527 | -113.73235 | 36043 ft | 452 kts | 210° |
| 2026-04-22 15:05 | 36.94659 | -113.76049 | 36026 ft | 450 kts | 211° |
| 2026-04-22 15:05 | 36.88864 | -113.78887 | 36009 ft | 448 kts | 211° |
| 2026-04-22 15:06 | 36.83043 | -113.81724 | 35982 ft | 449 kts | 211° |
| 2026-04-22 15:06 | 36.77217 | -113.84545 | 35967 ft | 449 kts | 211° |
| 2026-04-22 15:07 | 36.71392 | -113.87352 | 35971 ft | 449 kts | 211° |
| 2026-04-22 15:07 | 36.65555 | -113.90160 | 35962 ft | 449 kts | 211° |
| 2026-04-22 15:08 | 36.59827 | -113.93164 | 35959 ft | 445 kts | 214° |
| 2026-04-22 15:08 | 36.54205 | -113.96358 | 35960 ft | 444 kts | 214° |
| 2026-04-22 15:09 | 36.48602 | -113.99514 | 35960 ft | 445 kts | 214° |
| 2026-04-22 15:09 | 36.42951 | -114.02649 | 35953 ft | 444 kts | 214° |
| 2026-04-22 15:10 | 36.37609 | -114.06334 | 35951 ft | 436 kts | 220° |
| 2026-04-22 15:10 | 36.32437 | -114.10265 | 35954 ft | 435 kts | 221° |
| 2026-04-22 15:11 | 36.27316 | -114.14218 | 35946 ft | 435 kts | 221° |
| 2026-04-22 15:11 | 36.22167 | -114.18181 | 35942 ft | 435 kts | 221° |
| 2026-04-22 15:12 | 36.17012 | -114.22125 | 35941 ft | 435 kts | 220° |
| 2026-04-22 15:12 | 36.11905 | -114.26063 | 35942 ft | 434 kts | 221° |
| 2026-04-22 15:13 | 36.07927 | -114.29784 | 35932 ft | 424 kts | 230° |
| 2026-04-22 15:13 | 36.03218 | -114.35898 | 35944 ft | 422 kts | 234° |
| 2026-04-22 15:14 | 35.99310 | -114.41325 | 35954 ft | 421 kts | 235° |
| 2026-04-22 15:14 | 35.96083 | -114.45829 | 35963 ft | 421 kts | 235° |
| 2026-04-22 15:15 | 35.92194 | -114.51227 | 35984 ft | 421 kts | 235° |
| 2026-04-22 15:15 | 35.88294 | -114.56609 | 36000 ft | 421 kts | 235° |
| 2026-04-22 15:16 | 35.84392 | -114.61982 | 35952 ft | 421 kts | 235° |
| 2026-04-22 15:16 | 35.80480 | -114.67359 | 35983 ft | 421 kts | 235° |
| 2026-04-22 15:17 | 35.76593 | -114.72696 | 35985 ft | 421 kts | 235° |
| 2026-04-22 15:17 | 35.72676 | -114.78060 | 36007 ft | 421 kts | 235° |
| 2026-04-22 15:18 | 35.68749 | -114.83432 | 36015 ft | 422 kts | 235° |
| 2026-04-22 15:18 | 35.64828 | -114.88798 | 36012 ft | 421 kts | 235° |
| 2026-04-22 15:19 | 35.60909 | -114.94158 | 36016 ft | 421 kts | 235° |
| 2026-04-22 15:19 | 35.56995 | -114.99502 | 36015 ft | 421 kts | 235° |
| 2026-04-22 15:20 | 35.53075 | -115.04849 | 36034 ft | 421 kts | 234° |
| 2026-04-22 15:20 | 35.49155 | -115.10170 | 36032 ft | 421 kts | 233° |
| 2026-04-22 15:21 | 35.45127 | -115.15404 | 36021 ft | 421 kts | 233° |
| 2026-04-22 15:21 | 35.41367 | -115.20293 | 36056 ft | 424 kts | 233° |
| 2026-04-22 15:22 | 35.37342 | -115.25532 | 36056 ft | 425 kts | 233° |
| 2026-04-22 15:22 | 35.33287 | -115.30807 | 36078 ft | 425 kts | 233° |
| 2026-04-22 15:23 | 35.29230 | -115.36082 | 36071 ft | 428 kts | 232° |
| 2026-04-22 15:23 | 35.25129 | -115.41406 | 36095 ft | 431 kts | 232° |
| 2026-04-22 15:24 | 35.21004 | -115.46747 | 36098 ft | 431 kts | 232° |
| 2026-04-22 15:24 | 35.16885 | -115.52073 | 36111 ft | 431 kts | 232° |
| 2026-04-22 15:25 | 35.12766 | -115.57394 | 36091 ft | 431 kts | 232° |
| 2026-04-22 15:25 | 35.08619 | -115.62727 | 36114 ft | 433 kts | 232° |
| 2026-04-22 15:26 | 35.04467 | -115.68024 | 36113 ft | 435 kts | 232° |
| 2026-04-22 15:26 | 35.00278 | -115.73365 | 36113 ft | 435 kts | 232° |
| 2026-04-22 15:27 | 34.96088 | -115.78704 | 36116 ft | 435 kts | 232° |
| 2026-04-22 15:27 | 34.91902 | -115.84031 | 36110 ft | 435 kts | 232° |
| 2026-04-22 15:28 | 34.87707 | -115.89360 | 36105 ft | 435 kts | 232° |
| 2026-04-22 15:28 | 34.83509 | -115.94685 | 36105 ft | 435 kts | 232° |
| 2026-04-22 15:29 | 34.79323 | -115.99987 | 36096 ft | 435 kts | 232° |
| 2026-04-22 15:30 | 34.73041 | -116.07973 | 36102 ft | 436 kts | 232° |
| 2026-04-22 15:30 | 34.68887 | -116.13266 | 36101 ft | 436 kts | 232° |
| 2026-04-22 15:31 | 34.64694 | -116.18596 | 36099 ft | 436 kts | 232° |
| 2026-04-22 15:31 | 34.60500 | -116.23920 | 36100 ft | 436 kts | 232° |
| 2026-04-22 15:32 | 34.56295 | -116.29249 | 36094 ft | 437 kts | 231° |
| 2026-04-22 15:32 | 34.52087 | -116.34572 | 36102 ft | 437 kts | 231° |
| 2026-04-22 15:33 | 34.47871 | -116.39899 | 36096 ft | 438 kts | 231° |
| 2026-04-22 15:33 | 34.43655 | -116.45251 | 36095 ft | 438 kts | 233° |
| 2026-04-22 15:34 | 34.40233 | -116.51194 | 35932 ft | 417 kts | 246° |
| 2026-04-22 15:34 | 34.38945 | -116.54275 | 35369 ft | 403 kts | 246° |
| 2026-04-22 15:34 | 34.37721 | -116.57272 | 33974 ft | 403 kts | 246° |
| 2026-04-22 15:34 | 34.36472 | -116.60331 | 32285 ft | 409 kts | 246° |
| 2026-04-22 15:35 | 34.35613 | -116.62426 | 31321 ft | 409 kts | 246° |
| 2026-04-22 15:35 | 34.33944 | -116.66478 | 29973 ft | 399 kts | 246° |
| 2026-04-22 15:35 | 34.32740 | -116.69407 | 29515 ft | 377 kts | 246° |
| 2026-04-22 15:35 | 34.31617 | -116.72202 | 28861 ft | 361 kts | 246° |
| 2026-04-22 15:36 | 34.30548 | -116.74873 | 28364 ft | 344 kts | 246° |
| 2026-04-22 15:36 | 34.29523 | -116.77434 | 27892 ft | 335 kts | 246° |
| 2026-04-22 15:36 | 34.28499 | -116.79986 | 27414 ft | 338 kts | 246° |
| 2026-04-22 15:36 | 34.27464 | -116.82565 | 26933 ft | 340 kts | 246° |
| 2026-04-22 15:37 | 34.26433 | -116.85124 | 26450 ft | 338 kts | 246° |
| 2026-04-22 15:37 | 34.25404 | -116.87672 | 25978 ft | 336 kts | 246° |
| 2026-04-22 15:37 | 34.24392 | -116.90180 | 25500 ft | 335 kts | 246° |
| 2026-04-22 15:37 | 34.23372 | -116.92704 | 25018 ft | 334 kts | 246° |
| 2026-04-22 15:38 | 34.22354 | -116.95221 | 24519 ft | 333 kts | 246° |
| 2026-04-22 15:38 | 34.20540 | -117.00384 | 23511 ft | 331 kts | 252° |
| 2026-04-22 15:38 | 34.19832 | -117.02994 | 22975 ft | 330 kts | 252° |
| 2026-04-22 15:39 | 34.19125 | -117.05631 | 22486 ft | 328 kts | 252° |
| 2026-04-22 15:39 | 34.18420 | -117.08251 | 21964 ft | 326 kts | 252° |
| 2026-04-22 15:39 | 34.17719 | -117.10844 | 21472 ft | 324 kts | 252° |
| 2026-04-22 15:39 | 34.17017 | -117.13431 | 20934 ft | 324 kts | 252° |
| 2026-04-22 15:40 | 34.16312 | -117.16041 | 20304 ft | 328 kts | 253° |
| 2026-04-22 15:40 | 34.15605 | -117.18655 | 19762 ft | 328 kts | 252° |
| 2026-04-22 15:40 | 34.14886 | -117.21261 | 19326 ft | 327 kts | 252° |
| 2026-04-22 15:40 | 34.14165 | -117.23859 | 18812 ft | 325 kts | 252° |
| 2026-04-22 15:41 | 34.13449 | -117.26447 | 18265 ft | 324 kts | 252° |
| 2026-04-22 15:41 | 34.12748 | -117.28987 | 17737 ft | 321 kts | 253° |
| 2026-04-22 15:41 | 34.12042 | -117.31541 | 17210 ft | 318 kts | 253° |
| 2026-04-22 15:41 | 34.11347 | -117.34057 | 16722 ft | 315 kts | 253° |
| 2026-04-22 15:42 | 34.10655 | -117.36560 | 16208 ft | 313 kts | 253° |
| 2026-04-22 15:42 | 34.09981 | -117.39055 | 15710 ft | 311 kts | 254° |
| 2026-04-22 15:42 | 34.09365 | -117.41545 | 15195 ft | 309 kts | 255° |
| 2026-04-22 15:42 | 34.08762 | -117.44005 | 14939 ft | 300 kts | 255° |
| 2026-04-22 15:43 | 34.08177 | -117.46369 | 14663 ft | 292 kts | 255° |
| 2026-04-22 15:43 | 34.07591 | -117.48725 | 14208 ft | 293 kts | 255° |
| 2026-04-22 15:43 | 34.07008 | -117.51071 | 13768 ft | 292 kts | 255° |
| 2026-04-22 15:43 | 34.06414 | -117.53419 | 13364 ft | 293 kts | 255° |
| 2026-04-22 15:44 | 34.05809 | -117.55778 | 12983 ft | 293 kts | 255° |
| 2026-04-22 15:44 | 34.05216 | -117.58091 | 12607 ft | 293 kts | 255° |
| 2026-04-22 15:44 | 34.04616 | -117.60429 | 12231 ft | 292 kts | 255° |
| 2026-04-22 15:44 | 34.04016 | -117.62771 | 11835 ft | 291 kts | 255° |
| 2026-04-22 15:45 | 34.03420 | -117.65097 | 11451 ft | 290 kts | 255° |
| 2026-04-22 15:45 | 34.02825 | -117.67416 | 11071 ft | 289 kts | 255° |
| 2026-04-22 15:45 | 34.02273 | -117.69745 | 10680 ft | 288 kts | 260° |
| 2026-04-22 15:45 | 34.01967 | -117.72107 | 10384 ft | 282 kts | 264° |
| 2026-04-22 15:46 | 34.01744 | -117.74421 | 10153 ft | 272 kts | 265° |
| 2026-04-22 15:46 | 34.01531 | -117.76674 | 9702 ft | 269 kts | 265° |
| 2026-04-22 15:46 | 34.01323 | -117.78883 | 9224 ft | 268 kts | 265° |
| 2026-04-22 15:46 | 34.01110 | -117.81101 | 8858 ft | 264 kts | 265° |
| 2026-04-22 15:47 | 34.00898 | -117.83277 | 8483 ft | 261 kts | 265° |
| 2026-04-22 15:47 | 34.00691 | -117.85444 | 8150 ft | 261 kts | 265° |
| 2026-04-22 15:47 | 34.00481 | -117.87620 | 7801 ft | 261 kts | 265° |
| 2026-04-22 15:47 | 34.00262 | -117.89792 | 7456 ft | 261 kts | 264° |
| 2026-04-22 15:48 | 34.00397 | -117.91953 | 7073 ft | 259 kts | 282° |
| 2026-04-22 15:48 | 34.00576 | -117.94115 | 6737 ft | 260 kts | 272° |
| 2026-04-22 15:48 | 34.00539 | -117.96302 | 6383 ft | 260 kts | 268° |
| 2026-04-22 15:48 | 34.00415 | -117.98479 | 6036 ft | 260 kts | 266° |
| 2026-04-22 15:49 | 34.00227 | -118.00642 | 5773 ft | 260 kts | 264° |
| 2026-04-22 15:49 | 33.99974 | -118.02810 | 5345 ft | 260 kts | 262° |
| 2026-04-22 15:49 | 33.99662 | -118.04954 | 5025 ft | 260 kts | 259° |
| 2026-04-22 15:49 | 33.99288 | -118.07083 | 4766 ft | 260 kts | 257° |
| 2026-04-22 15:50 | 33.98858 | -118.09180 | 4251 ft | 262 kts | 255° |
| 2026-04-22 15:50 | 33.98362 | -118.11279 | 3966 ft | 255 kts | 253° |
| 2026-04-22 15:50 | 33.97884 | -118.13275 | 3888 ft | 239 kts | 256° |
| 2026-04-22 15:50 | 33.97550 | -118.15161 | 3670 ft | 221 kts | 261° |
| 2026-04-22 15:51 | 33.97358 | -118.16933 | 3479 ft | 205 kts | 264° |
| 2026-04-22 15:51 | 33.97254 | -118.18569 | 3340 ft | 186 kts | 267° |
| 2026-04-22 15:51 | 33.97199 | -118.20066 | 3246 ft | 172 kts | 267° |
| 2026-04-22 15:51 | 33.97133 | -118.21446 | 3114 ft | 158 kts | 265° |
| 2026-04-22 15:52 | 33.97038 | -118.22718 | 2955 ft | 148 kts | 263° |
| 2026-04-22 15:52 | 33.96914 | -118.23908 | 2820 ft | 139 kts | 261° |
| 2026-04-22 15:52 | 33.96773 | -118.25048 | 2631 ft | 136 kts | 261° |
| 2026-04-22 15:52 | 33.96653 | -118.26162 | 2451 ft | 136 kts | 262° |
| 2026-04-22 15:53 | 33.96538 | -118.27292 | 2261 ft | 136 kts | 262° |
| 2026-04-22 15:53 | 33.96422 | -118.28421 | 2085 ft | 136 kts | 262° |
| 2026-04-22 15:53 | 33.96306 | -118.29544 | 1892 ft | 135 kts | 262° |
| 2026-04-22 15:53 | 33.96190 | -118.30668 | 1711 ft | 135 kts | 262° |
| 2026-04-22 15:54 | 33.96075 | -118.31791 | 1521 ft | 134 kts | 263° |
| 2026-04-22 15:54 | 33.95960 | -118.32911 | 1337 ft | 134 kts | 262° |
| 2026-04-22 15:54 | 33.95845 | -118.34024 | 1146 ft | 134 kts | 263° |
| 2026-04-22 15:54 | 33.95731 | -118.35132 | 971 ft | 133 kts | 263° |
| 2026-04-22 15:55 | 33.95618 | -118.36239 | 791 ft | 133 kts | 263° |
| 2026-04-22 15:55 | 33.95506 | -118.37326 | 610 ft | 131 kts | 264° |
| 2026-04-22 15:55 | 33.95391 | -118.38432 | 416 ft | 131 kts | 264° |
| 2026-04-22 15:55 | 33.95279 | -118.39517 | 242 ft | 131 kts | 265° |
| 2026-04-22 15:56 | 33.95166 | -118.40604 | 102 ft | 129 kts | 265° |
| 2026-04-22 15:56 | 33.95075 | -118.41517 | 101 ft | 79 kts | 263° |
| 2026-04-22 15:56 | 33.95034 | -118.41908 | 104 ft | 33 kts | 262° |
| 2026-04-22 15:56 | 33.94959 | -118.42155 | 104 ft | 30 kts | 234° |
| 2026-04-22 15:57 | 33.94794 | -118.42277 | 104 ft | 29 kts | 179° |
| 2026-04-22 15:57 | 33.94679 | -118.42222 | 103 ft | 10 kts | 78° |
| 2026-04-22 15:57 | 33.94696 | -118.42091 | 100 ft | 24 kts | 81° |
| 2026-04-22 15:57 | 33.94715 | -118.41930 | 101 ft | 32 kts | 83° |
| 2026-04-22 15:58 | 33.94742 | -118.41656 | 100 ft | 34 kts | 83° |
| 2026-04-22 15:58 | 33.94778 | -118.41368 | 101 ft | 35 kts | 75° |
| 2026-04-22 15:58 | 33.94812 | -118.41080 | 101 ft | 35 kts | 85° |
| 2026-04-22 15:58 | 33.94831 | -118.40867 | 103 ft | 5 kts | 111° |
| 2026-04-22 15:59 | 33.94798 | -118.40870 | 102 ft | 12 kts | 205° |
| 2026-04-22 15:59 | 33.94667 | -118.40903 | 100 ft | 22 kts | 173° |
| 2026-04-22 15:59 | 33.94554 | -118.40905 | 101 ft | 9 kts | 224° |
| 2026-04-22 15:59 | 33.94545 | -118.40958 | 102 ft | 8 kts | 265° |
| 2026-04-22 16:00 | 33.94542 | -118.40992 | 99 ft | 0 kts | 263° |
| 2026-04-22 16:00 | 33.94542 | -118.40995 | 99 ft | 0 kts | 263° |
| 2026-04-22 16:00 | 33.94542 | -118.40996 | 99 ft | 0 kts | 263° |